createdAt,value
2017-12-19T00:00:20.925Z,-1.30
2017-12-19T00:02:50.713Z,-1.40
2017-12-19T00:05:19.501Z,-1.40
2017-12-19T00:07:50.261Z,-1.40
2017-12-19T00:10:19.185Z,-1.40
2017-12-19T00:12:47.177Z,-1.40
2017-12-19T00:15:17.233Z,-1.40
2017-12-19T00:17:46.985Z,-1.40
2017-12-19T00:20:18.877Z,-1.40
2017-12-19T00:22:56.321Z,-1.40
2017-12-19T00:25:24.345Z,-1.40
2017-12-19T00:27:53.125Z,-1.40
2017-12-19T00:30:23.860Z,-1.40
2017-12-19T00:32:59.153Z,-1.40
2017-12-19T00:35:31.145Z,-1.40
2017-12-19T00:38:02.988Z,-1.40
2017-12-19T00:40:38.354Z,-1.40
2017-12-19T00:43:07.332Z,-1.40
2017-12-19T00:45:35.357Z,-1.40
2017-12-19T00:48:09.838Z,-1.20
2017-12-19T00:50:37.861Z,-1.30
2017-12-19T00:53:06.900Z,-1.20
2017-12-19T00:55:40.973Z,-1.20
2017-12-19T00:58:20.608Z,-1.10
2017-12-19T01:00:51.576Z,-1.10
2017-12-19T01:03:19.629Z,-1.10
2017-12-19T01:05:50.925Z,-1.10
2017-12-19T01:08:22.548Z,-1.10
2017-12-19T01:10:50.589Z,-1.20
2017-12-19T01:13:18.621Z,-1.10
2017-12-19T01:16:00.108Z,-1.10
2017-12-19T01:18:42.985Z,-1.10
2017-12-19T01:21:14.345Z,-1.10
2017-12-19T01:23:44.401Z,-1.00
2017-12-19T01:26:14.385Z,-1.00
2017-12-19T01:28:44.441Z,-1.10
2017-12-19T01:31:13.373Z,-1.10
2017-12-19T01:33:46.676Z,-1.10
2017-12-19T01:36:18.235Z,-1.10
2017-12-19T01:38:50.176Z,-1.10
2017-12-19T01:41:23.669Z,-1.10
2017-12-19T01:43:52.689Z,-1.10
2017-12-19T01:46:26.980Z,-1.10
2017-12-19T01:48:55.772Z,-1.10
2017-12-19T01:51:23.780Z,-1.20
2017-12-19T01:53:53.547Z,-1.20
2017-12-19T01:56:27.960Z,-1.20
2017-12-19T01:58:59.832Z,-1.20
2017-12-19T02:01:31.512Z,-1.20
2017-12-19T02:04:02.328Z,-1.20
2017-12-19T02:06:32.400Z,-1.20
2017-12-19T02:09:04.824Z,-1.10
2017-12-19T02:11:32.860Z,-1.10
2017-12-19T02:14:00.884Z,-1.10
2017-12-19T02:16:34.159Z,-1.00
2017-12-19T02:19:04.148Z,-1.00
2017-12-19T02:21:33.148Z,-1.00
2017-12-19T02:24:02.168Z,-1.00
2017-12-19T02:26:30.184Z,-1.00
2017-12-19T02:29:01.152Z,-1.00
2017-12-19T02:31:29.945Z,-1.00
2017-12-19T02:33:59.956Z,-1.10
2017-12-19T02:36:33.064Z,-1.00
2017-12-19T02:39:12.060Z,-1.00
2017-12-19T02:41:40.096Z,-1.00
2017-12-19T02:44:22.014Z,-1.10
2017-12-19T02:46:51.976Z,-1.10
2017-12-19T02:49:20.947Z,-1.10
2017-12-19T02:51:59.639Z,-1.10
2017-12-19T02:54:34.356Z,-1.10
2017-12-19T02:57:04.325Z,-1.10
2017-12-19T02:59:36.320Z,-1.00
2017-12-19T03:02:12.608Z,-1.00
2017-12-19T03:04:49.268Z,-0.90
2017-12-19T03:07:21.279Z,-0.90
2017-12-19T03:09:53.120Z,-1.00
2017-12-19T03:12:22.132Z,-1.00
2017-12-19T03:14:53.467Z,-0.90
2017-12-19T03:17:21.484Z,-0.90
2017-12-19T03:20:00.640Z,-0.90
2017-12-19T03:22:35.359Z,-0.80
2017-12-19T03:25:10.300Z,-0.80
2017-12-19T03:27:40.227Z,-0.80
2017-12-19T03:30:15.760Z,-0.80
2017-12-19T03:32:49.587Z,-0.90
2017-12-19T03:35:21.372Z,-0.90
2017-12-19T03:37:57.777Z,-1.00
2017-12-19T03:40:26.740Z,-1.00
2017-12-19T03:43:02.212Z,-0.90
2017-12-19T03:45:30.239Z,-0.90
2017-12-19T03:48:05.656Z,-0.90
2017-12-19T03:50:49.247Z,-0.90
2017-12-19T03:53:22.379Z,-0.90
2017-12-19T03:56:00.899Z,-0.80
2017-12-19T03:58:31.932Z,-0.90
2017-12-19T04:01:07.487Z,-0.90
2017-12-19T04:03:36.492Z,-0.90
2017-12-19T04:06:06.507Z,-0.90
2017-12-19T04:08:34.531Z,-1.00
2017-12-19T04:11:19.375Z,-1.00
2017-12-19T04:13:59.344Z,-1.00
2017-12-19T04:16:37.163Z,-1.00
2017-12-19T04:19:19.615Z,-1.00
2017-12-19T04:21:48.403Z,-1.00
2017-12-19T04:24:21.358Z,-1.00
2017-12-19T04:26:55.991Z,-1.00
2017-12-19T04:29:24.011Z,-1.00
2017-12-19T04:32:09.270Z,-1.00
2017-12-19T04:34:38.207Z,-0.90
2017-12-19T04:37:09.255Z,-0.90
2017-12-19T04:39:49.683Z,-0.90
2017-12-19T04:42:21.784Z,-0.90
2017-12-19T04:44:54.431Z,-0.90
2017-12-19T04:47:24.407Z,-0.90
2017-12-19T04:49:55.107Z,-1.00
2017-12-19T04:52:36.342Z,-1.00
2017-12-19T04:55:11.183Z,-1.00
2017-12-19T04:57:40.211Z,-1.00
2017-12-19T05:00:08.267Z,-1.00
2017-12-19T05:02:36.283Z,-1.00
2017-12-19T05:05:08.330Z,-1.00
2017-12-19T05:07:49.823Z,-1.10
2017-12-19T05:10:18.615Z,-1.00
2017-12-19T05:12:52.799Z,-1.00
2017-12-19T05:15:20.818Z,-1.00
2017-12-19T05:18:00.170Z,-0.90
2017-12-19T05:20:29.209Z,-0.90
2017-12-19T05:22:57.219Z,-0.90
2017-12-19T05:25:27.175Z,-0.90
2017-12-19T05:28:05.163Z,-1.00
2017-12-19T05:30:42.970Z,-1.00
2017-12-19T05:33:18.707Z,-1.00
2017-12-19T05:35:46.720Z,-1.00
2017-12-19T05:38:26.667Z,-1.00
2017-12-19T05:40:58.403Z,-1.00
2017-12-19T05:43:26.434Z,-0.90
2017-12-19T05:46:06.691Z,-0.90
2017-12-19T05:48:47.255Z,-0.90
2017-12-19T05:51:17.203Z,-0.90
2017-12-19T05:53:48.446Z,-0.90
2017-12-19T05:56:20.110Z,-0.90
2017-12-19T05:59:00.561Z,-0.90
2017-12-19T06:01:33.750Z,-0.80
2017-12-19T06:04:15.102Z,-0.80
2017-12-19T06:06:44.031Z,-0.90
2017-12-19T06:09:19.862Z,-0.90
2017-12-19T06:11:51.018Z,-0.90
2017-12-19T06:14:21.063Z,-0.90
2017-12-19T06:16:54.427Z,-0.90
2017-12-19T06:19:22.454Z,-0.90
2017-12-19T06:22:04.439Z,-0.90
2017-12-19T06:24:33.222Z,-1.00
2017-12-19T06:27:05.562Z,-0.90
2017-12-19T06:29:39.066Z,-1.00
2017-12-19T06:32:09.066Z,-1.00
2017-12-19T06:34:37.078Z,-1.00
2017-12-19T06:37:09.554Z,-0.90
2017-12-19T06:39:38.327Z,-0.90
2017-12-19T06:42:10.259Z,-0.90
2017-12-19T06:44:45.779Z,-0.90
2017-12-19T06:47:19.352Z,-0.90
2017-12-19T06:49:51.778Z,-0.90
2017-12-19T06:52:25.378Z,-0.90
2017-12-19T06:54:54.158Z,-0.90
2017-12-19T06:57:23.158Z,-0.90
2017-12-19T06:59:58.494Z,-0.90
2017-12-19T07:02:32.386Z,-0.90
2017-12-19T07:05:05.415Z,-0.80
2017-12-19T07:07:34.386Z,-0.90
2017-12-19T07:10:08.798Z,-0.90
2017-12-19T07:12:41.986Z,-0.90
2017-12-19T07:15:16.486Z,-0.90
2017-12-19T07:17:50.010Z,-0.80
2017-12-19T07:20:23.374Z,-0.80
2017-12-19T07:22:51.389Z,-0.80
2017-12-19T07:25:19.414Z,-0.80
2017-12-19T07:27:47.450Z,-0.80
2017-12-19T07:30:16.238Z,-0.80
2017-12-19T07:32:46.954Z,-0.80
2017-12-19T07:35:14.958Z,-0.80
2017-12-19T07:37:44.926Z,-0.80
2017-12-19T07:40:13.950Z,-0.70
2017-12-19T07:42:44.646Z,-0.60
2017-12-19T07:45:12.670Z,-0.60
2017-12-19T07:47:40.701Z,-0.70
2017-12-19T07:50:18.454Z,-0.70
2017-12-19T07:52:46.491Z,-0.80
2017-12-19T07:55:14.490Z,-0.80
2017-12-19T07:58:00.346Z,-0.90
2017-12-19T08:00:30.022Z,-1.00
2017-12-19T08:02:59.018Z,-1.00
2017-12-19T08:05:34.564Z,-1.00
2017-12-19T08:08:03.350Z,-0.90
2017-12-19T08:10:31.354Z,-0.90
2017-12-19T08:13:00.146Z,-0.70
2017-12-19T08:15:39.410Z,-0.60
2017-12-19T08:18:10.522Z,-0.60
2017-12-19T08:20:52.709Z,-0.40
2017-12-19T08:23:21.506Z,-0.40
2017-12-19T08:25:53.730Z,-0.30
2017-12-19T08:28:22.525Z,-0.30
2017-12-19T08:30:55.154Z,-0.30
2017-12-19T08:33:23.188Z,-0.20
2017-12-19T08:36:03.382Z,0.00
2017-12-19T08:38:31.393Z,0.10
2017-12-19T08:40:59.398Z,0.30
2017-12-19T08:43:28.174Z,0.50
2017-12-19T08:45:57.090Z,0.50
2017-12-19T08:48:27.966Z,0.50
2017-12-19T08:51:03.810Z,0.60
2017-12-19T08:53:39.514Z,0.70
2017-12-19T08:56:08.334Z,1.10
2017-12-19T08:58:42.341Z,1.10
2017-12-19T09:01:16.053Z,1.30
2017-12-19T09:03:50.877Z,1.40
2017-12-19T09:06:19.806Z,1.40
2017-12-19T09:08:54.285Z,1.40
2017-12-19T09:11:22.305Z,1.40
2017-12-19T09:13:53.933Z,1.40
2017-12-19T09:16:21.941Z,1.40
2017-12-19T09:18:51.625Z,1.40
2017-12-19T09:21:19.641Z,1.40
2017-12-19T09:23:48.433Z,1.40
2017-12-19T09:26:16.441Z,1.40
2017-12-19T09:28:48.309Z,1.50
2017-12-19T09:31:18.221Z,1.70
2017-12-19T09:33:49.693Z,1.90
2017-12-19T09:36:21.428Z,2.00
2017-12-19T09:38:49.453Z,2.10
2017-12-19T09:41:17.469Z,2.10
2017-12-19T09:43:45.473Z,2.00
2017-12-19T09:46:14.273Z,2.20
2017-12-19T09:48:43.037Z,2.30
2017-12-19T09:51:11.811Z,2.20
2017-12-19T09:53:39.836Z,2.20
2017-12-19T09:56:07.843Z,2.10
2017-12-19T09:58:35.853Z,2.00
2017-12-19T10:01:03.885Z,2.00
2017-12-19T10:03:35.325Z,2.10
2017-12-19T10:06:10.953Z,2.20
2017-12-19T10:08:40.885Z,2.30
2017-12-19T10:11:10.917Z,2.40
2017-12-19T10:13:38.925Z,2.50
2017-12-19T10:16:06.933Z,2.60
2017-12-19T10:18:47.061Z,2.70
2017-12-19T10:21:21.993Z,2.80
2017-12-19T10:23:54.113Z,2.90
2017-12-19T10:29:28.993Z,3.00
2017-12-19T10:31:57.005Z,3.00
2017-12-19T10:34:26.720Z,3.10
2017-12-19T10:36:55.717Z,3.10
2017-12-19T10:39:24.493Z,3.30
2017-12-19T10:41:53.169Z,3.30
2017-12-19T10:44:23.105Z,3.20
2017-12-19T10:47:02.088Z,3.00
2017-12-19T10:49:37.857Z,3.00
2017-12-19T10:52:07.785Z,3.10
2017-12-19T10:54:39.453Z,3.20
2017-12-19T10:57:21.676Z,3.40
2017-12-19T11:00:02.668Z,3.40
2017-12-19T11:02:30.696Z,3.50
2017-12-19T11:05:15.197Z,3.60
2017-12-19T11:07:43.209Z,3.70
2017-12-19T11:10:12.017Z,3.80
2017-12-19T11:12:41.004Z,3.80
2017-12-19T11:15:16.408Z,3.70
2017-12-19T11:17:44.428Z,3.90
2017-12-19T11:20:16.884Z,4.40
2017-12-19T11:22:44.913Z,5.10
2017-12-19T11:25:12.932Z,5.50
2017-12-19T11:27:55.668Z,5.50
2017-12-19T11:30:25.444Z,5.40
2017-12-19T11:32:54.424Z,5.40
2017-12-19T11:35:24.357Z,5.70
2017-12-19T11:38:06.580Z,5.80
2017-12-19T11:40:43.524Z,5.70
2017-12-19T11:43:14.772Z,5.70
2017-12-19T11:45:53.168Z,5.20
2017-12-19T11:48:23.108Z,4.90
2017-12-19T11:50:52.092Z,4.90
2017-12-19T11:53:34.456Z,5.00
2017-12-19T11:56:06.557Z,5.00
2017-12-19T11:58:38.236Z,4.70
2017-12-19T12:01:11.820Z,4.60
2017-12-19T12:03:39.844Z,4.50
2017-12-19T12:06:07.860Z,4.70
2017-12-19T12:08:41.648Z,4.80
2017-12-19T12:11:12.694Z,4.70
2017-12-19T12:13:45.390Z,4.90
2017-12-19T12:16:15.400Z,5.10
2017-12-19T12:18:53.587Z,5.10
2017-12-19T12:21:26.508Z,4.80
2017-12-19T12:23:55.507Z,4.60
2017-12-19T12:26:30.896Z,4.70
2017-12-19T12:28:58.912Z,4.50
2017-12-19T12:31:27.896Z,4.00
2017-12-19T12:33:56.668Z,3.30
2017-12-19T12:36:24.696Z,3.30
2017-12-19T12:38:52.704Z,3.10
2017-12-19T12:41:31.309Z,2.80
2017-12-19T12:44:05.104Z,2.70
2017-12-19T12:46:35.068Z,2.60
2017-12-19T12:49:05.061Z,2.70
2017-12-19T12:51:38.888Z,2.90
2017-12-19T12:54:13.265Z,3.20
2017-12-19T12:56:41.345Z,3.60
2017-12-19T12:59:11.278Z,3.70
2017-12-19T13:01:46.392Z,3.80
2017-12-19T13:04:16.318Z,4.10
2017-12-19T13:06:54.304Z,4.30
2017-12-19T13:09:26.288Z,4.10
2017-12-19T13:11:57.949Z,3.70
2017-12-19T13:14:25.967Z,3.30
2017-12-19T13:16:53.980Z,3.10
2017-12-19T13:19:27.768Z,2.70
2017-12-19T13:21:55.795Z,2.50
2017-12-19T13:24:24.567Z,2.20
2017-12-19T13:26:52.600Z,2.20
2017-12-19T13:29:22.536Z,2.20
2017-12-19T13:31:50.544Z,2.30
2017-12-19T13:34:26.336Z,2.30
2017-12-19T13:36:54.352Z,2.30
2017-12-19T13:39:23.132Z,2.00
2017-12-19T13:41:53.140Z,2.00
2017-12-19T13:44:24.580Z,1.80
2017-12-19T13:46:56.443Z,1.70
2017-12-19T13:49:24.460Z,1.60
2017-12-19T13:51:54.408Z,1.60
2017-12-19T13:54:24.416Z,1.50
2017-12-19T13:56:55.060Z,1.50
2017-12-19T13:59:29.871Z,1.50
2017-12-19T14:02:15.303Z,1.50
2017-12-19T14:04:54.583Z,1.50
2017-12-19T14:07:24.508Z,1.50
2017-12-19T14:09:52.515Z,1.50
2017-12-19T14:12:21.479Z,1.40
2017-12-19T14:15:08.963Z,1.40
2017-12-19T14:17:36.988Z,1.30
2017-12-19T14:20:05.006Z,1.20
2017-12-19T14:22:33.943Z,1.20
2017-12-19T14:25:14.559Z,1.10
2017-12-19T14:27:42.571Z,1.00
2017-12-19T14:30:14.535Z,1.00
2017-12-19T14:32:42.543Z,0.90
2017-12-19T14:35:11.336Z,0.80
2017-12-19T14:37:46.809Z,0.80
2017-12-19T14:40:14.827Z,0.80
2017-12-19T14:42:42.839Z,0.80
2017-12-19T14:45:12.850Z,0.80
2017-12-19T14:47:46.766Z,0.80
2017-12-19T14:50:15.703Z,0.80
2017-12-19T14:52:45.695Z,0.80
2017-12-19T14:55:15.736Z,0.80
2017-12-19T14:57:44.711Z,0.70
2017-12-19T15:00:12.731Z,0.70
2017-12-19T15:02:40.759Z,0.70
2017-12-19T15:05:08.826Z,0.70
2017-12-19T15:07:37.807Z,0.70
2017-12-19T15:10:10.619Z,0.60
2017-12-19T15:12:43.285Z,0.60
2017-12-19T15:15:17.707Z,0.60
2017-12-19T15:17:50.775Z,0.60
2017-12-19T15:20:23.579Z,0.60
2017-12-19T15:23:05.747Z,0.60
2017-12-19T15:25:40.675Z,0.50
2017-12-19T15:28:14.398Z,0.50
2017-12-19T15:31:01.471Z,0.50
2017-12-19T15:33:31.423Z,0.50
2017-12-19T15:35:59.431Z,0.50
2017-12-19T15:38:29.211Z,0.50
2017-12-19T15:41:04.119Z,0.40
2017-12-19T15:43:35.291Z,0.50
2017-12-19T15:46:14.579Z,0.50
2017-12-19T15:48:43.615Z,0.50
2017-12-19T15:51:15.359Z,0.50
2017-12-19T15:53:45.395Z,0.40
2017-12-19T15:56:14.363Z,0.40
2017-12-19T15:58:43.363Z,0.40
2017-12-19T16:01:15.761Z,0.40
2017-12-19T16:03:50.367Z,0.40
2017-12-19T16:06:21.623Z,0.40
2017-12-19T16:08:51.531Z,0.50
2017-12-19T16:11:27.663Z,0.50
2017-12-19T16:14:00.807Z,0.50
2017-12-19T16:16:29.607Z,0.50
2017-12-19T16:18:57.607Z,0.50
2017-12-19T16:21:25.830Z,0.50
2017-12-19T16:23:54.783Z,0.50
2017-12-19T16:26:24.790Z,0.50
2017-12-19T16:28:53.819Z,0.50
2017-12-19T16:31:23.818Z,0.50
2017-12-19T16:33:55.191Z,0.40
2017-12-19T16:36:28.043Z,0.40
2017-12-19T16:38:56.073Z,0.40
2017-12-19T16:41:24.078Z,0.40
2017-12-19T16:43:53.010Z,0.50
2017-12-19T16:46:21.791Z,0.50
2017-12-19T16:48:50.559Z,0.50
2017-12-19T16:51:18.571Z,0.40
2017-12-19T16:53:48.542Z,0.40
2017-12-19T16:56:16.546Z,0.40
2017-12-19T16:58:44.567Z,0.40
2017-12-19T17:01:12.589Z,0.30
2017-12-19T17:03:41.494Z,0.30
2017-12-19T17:06:09.495Z,0.40
2017-12-19T17:08:44.942Z,0.30
2017-12-19T17:11:14.638Z,0.30
2017-12-19T17:13:43.645Z,0.30
2017-12-19T17:16:12.630Z,0.30
2017-12-19T17:18:45.418Z,0.30
2017-12-19T17:21:14.633Z,0.30
2017-12-19T17:23:42.606Z,0.30
2017-12-19T17:26:14.970Z,0.30
2017-12-19T17:28:46.506Z,0.30
2017-12-19T17:31:14.505Z,0.20
2017-12-19T17:33:43.290Z,0.20
2017-12-19T17:36:12.067Z,0.10
2017-12-19T17:38:40.092Z,0.10
2017-12-19T17:41:13.322Z,0.10
2017-12-19T17:43:41.334Z,0.10
2017-12-19T17:46:09.358Z,0.10
2017-12-19T17:48:37.382Z,0.10
2017-12-19T17:51:05.406Z,0.10
2017-12-19T17:53:34.386Z,0.10
2017-12-19T17:56:02.426Z,0.10
2017-12-19T17:58:31.222Z,0.10
2017-12-19T18:01:00.133Z,0.10
2017-12-19T18:03:28.154Z,0.10
2017-12-19T18:05:57.094Z,0.20
2017-12-19T18:08:25.122Z,0.10
2017-12-19T18:10:57.634Z,0.10
2017-12-19T18:13:26.562Z,0.10
2017-12-19T18:15:55.366Z,0.10
2017-12-19T18:18:23.423Z,0.00
2017-12-19T18:20:53.101Z,0.10
2017-12-19T18:23:21.142Z,0.00
2017-12-19T18:25:49.182Z,0.00
2017-12-19T18:28:19.144Z,0.10
2017-12-19T18:30:47.646Z,0.10
2017-12-19T18:33:15.678Z,0.00
2017-12-19T18:35:50.614Z,0.00
2017-12-19T18:38:18.629Z,0.00
2017-12-19T18:40:51.250Z,0.00
2017-12-19T18:43:19.282Z,-0.10
2017-12-19T18:45:48.086Z,0.00
2017-12-19T18:48:16.133Z,-0.10
2017-12-19T18:50:45.092Z,-0.10
2017-12-19T18:53:13.157Z,-0.10
2017-12-19T18:55:42.153Z,-0.10
2017-12-19T18:58:10.277Z,-0.10
2017-12-19T19:00:38.245Z,-0.10
2017-12-19T19:03:07.034Z,0.00
2017-12-19T19:05:35.086Z,0.00
2017-12-19T19:08:03.890Z,0.00
2017-12-19T19:10:31.926Z,0.00
2017-12-19T19:12:59.949Z,0.00
2017-12-19T19:15:33.029Z,0.00
2017-12-19T19:18:01.141Z,0.00
2017-12-19T19:20:32.413Z,0.00
2017-12-19T19:23:00.449Z,0.00
2017-12-19T19:25:29.509Z,0.00
2017-12-19T19:27:57.497Z,0.00
2017-12-19T19:30:25.537Z,0.00
2017-12-19T19:32:53.577Z,0.00
2017-12-19T19:35:24.950Z,0.00
2017-12-19T19:37:58.745Z,0.10
2017-12-19T19:40:27.569Z,0.10
2017-12-19T19:42:56.485Z,0.10
2017-12-19T19:45:24.520Z,0.10
2017-12-19T19:47:52.573Z,0.10
2017-12-19T19:50:20.617Z,0.10
2017-12-19T19:52:48.645Z,0.10
2017-12-19T19:55:18.617Z,0.10
2017-12-19T19:57:47.408Z,0.10
2017-12-19T20:00:15.445Z,0.00
2017-12-19T20:02:43.487Z,0.10
2017-12-19T20:05:11.505Z,0.10
2017-12-19T20:07:39.537Z,0.10
2017-12-19T20:10:09.488Z,0.10
2017-12-19T20:12:37.505Z,0.10
2017-12-19T20:15:11.533Z,0.10
2017-12-19T20:17:39.545Z,0.10
2017-12-19T20:20:11.316Z,0.10
2017-12-19T20:22:41.081Z,0.10
2017-12-19T20:25:09.989Z,0.10
2017-12-19T20:27:38.017Z,0.10
2017-12-19T20:30:08.016Z,0.10
2017-12-19T20:32:36.959Z,0.10
2017-12-19T20:35:08.660Z,0.00
2017-12-19T20:37:39.337Z,0.10
2017-12-19T20:40:07.364Z,0.10
2017-12-19T20:42:37.361Z,0.10
2017-12-19T20:45:08.373Z,0.10
2017-12-19T20:47:36.420Z,0.10
2017-12-19T20:50:04.444Z,0.20
2017-12-19T20:52:34.123Z,0.20
2017-12-19T20:55:02.149Z,0.20
2017-12-19T20:57:30.196Z,0.20
2017-12-19T21:00:00.924Z,0.20
2017-12-19T21:02:29.736Z,0.20
2017-12-19T21:04:59.720Z,0.20
2017-12-19T21:07:29.544Z,0.20
2017-12-19T21:09:59.276Z,0.20
2017-12-19T21:12:29.036Z,0.20
2017-12-19T21:14:57.052Z,0.20
2017-12-19T21:17:26.033Z,0.20
2017-12-19T21:19:54.092Z,0.20
2017-12-19T21:22:23.895Z,0.20
2017-12-19T21:24:52.695Z,0.20
2017-12-19T21:27:23.524Z,0.10
2017-12-19T21:29:52.304Z,0.20
2017-12-19T21:32:23.044Z,0.20
2017-12-19T21:34:51.826Z,0.20
2017-12-19T21:37:19.854Z,0.20
2017-12-19T21:39:48.916Z,0.20
2017-12-19T21:42:17.708Z,0.20
2017-12-19T21:44:46.624Z,0.30
2017-12-19T21:47:15.644Z,0.20
2017-12-19T21:49:45.636Z,0.20
2017-12-19T21:52:13.661Z,0.20
2017-12-19T21:54:43.653Z,0.20
2017-12-19T21:57:12.484Z,0.20
2017-12-19T21:59:44.208Z,0.30
2017-12-19T22:02:12.984Z,0.30
2017-12-19T22:04:41.964Z,0.30
2017-12-19T22:07:10.875Z,0.30
2017-12-19T22:09:43.228Z,0.30
2017-12-19T22:12:11.260Z,0.30
2017-12-19T22:14:39.280Z,0.40
2017-12-19T22:17:12.252Z,0.40
2017-12-19T22:19:42.276Z,0.40
2017-12-19T22:22:11.184Z,0.40
2017-12-19T22:24:40.555Z,0.40
2017-12-19T22:27:08.571Z,0.40
2017-12-19T22:29:37.524Z,0.40
2017-12-19T22:32:10.671Z,0.40
2017-12-19T22:34:39.596Z,0.40
2017-12-19T22:37:11.379Z,0.40
2017-12-19T22:39:40.166Z,0.40
2017-12-19T22:42:08.952Z,0.40
2017-12-19T22:44:37.744Z,0.40
2017-12-19T22:47:06.539Z,0.40
2017-12-19T22:49:35.344Z,0.40
2017-12-19T22:52:05.340Z,0.40
2017-12-19T22:54:35.115Z,0.40
2017-12-19T22:57:03.131Z,0.40
2017-12-19T22:59:31.920Z,0.40
2017-12-19T23:01:59.939Z,0.40
2017-12-19T23:04:27.967Z,0.40
2017-12-19T23:06:59.595Z,0.40
2017-12-19T23:09:32.252Z,0.40
2017-12-19T23:12:01.251Z,0.40
2017-12-19T23:14:30.231Z,0.40
2017-12-19T23:16:59.155Z,0.40
2017-12-19T23:19:29.859Z,0.50
2017-12-19T23:21:58.771Z,0.40
2017-12-19T23:24:27.555Z,0.50
2017-12-19T23:27:00.232Z,0.40
2017-12-19T23:29:29.008Z,0.50
2017-12-19T23:31:57.023Z,0.40
2017-12-19T23:34:25.059Z,0.40
2017-12-19T23:36:54.028Z,0.50
2017-12-19T23:39:22.943Z,0.50
2017-12-19T23:41:51.767Z,0.50
2017-12-19T23:44:20.679Z,0.50
2017-12-19T23:46:50.423Z,0.50
2017-12-19T23:49:20.424Z,0.50
2017-12-19T23:51:48.436Z,0.50
2017-12-19T23:54:25.187Z,0.50
2017-12-19T23:56:57.215Z,0.50
2017-12-19T23:59:26.257Z,0.50
